الصفحة الرئيسية
METAR-TAF:

METAR-TAF

مطار :

Békéscsaba, المجر

دائرة عرض: 46-41-00N, خط طول: 021-09-45E, ارتفاع: 86 متر

مراقبة الطقس الحالي

تاريخ ووقت الإصدار 10ساعات و 13 دقيقة قبل الساعة 05:45UTC
ريح 2 عقدة من الشرق/الجنوب الشرقي
درجة الحرارة 8°درجة مئوية
الرطوبة 53%
ضغط 1031 hPa
الرؤية 10 كم أو أكثر
الغيوم لا تقل 1500 م ولا وجود لمزنة ركامية السحاب الأسود

METAR: LHBC 060545Z 12002KT CAVOK 08/M01 Q1031

زمن: 17:58 (15:58 UTC)


TAF: مفقودة

أرصاد الطقس والتوقعات من أكثر من 4000 مطار (تقارير الطقس للمطار METAR والتنبؤ بالطقس بالمطارTAF).

المحطات المتاحة هي النقط الصفراء والحمراء على الخريطة.

حرك المؤشر فوق النقطة لمعرفة اسم المحطة.

ثم انقر لمعرفة أرصاد وتوقعات الطقس.

لتغيير الخارطة: اضغط على الأزرار الخضراء مع رمز الصليب الأسود للتكبير. على الزر الأخضر مع شرطة للتصغير، أو على الأسهم الخضراء للخرائط المجاورة.


METAR-TAF: